Time;durP1;ratioP1;P1;durP2;ratioP2;P2;SDS_P1;SDS_P2;PMS_P1;PMS_P2;Temp;Humidity;BMP_temperature;BMP_pressure;BME280_temperature;BME280_humidity;BME280_pressure;Samples;Min_cycle;Max_cycle;Signal;HPM_P1;HPM_P2
2022/07/13 00:00:29;;;;;;;3.03;0.90;;;;;;;21.52;34.79;99071.00;4502457;31;20091;-81
2022/07/13 00:02:54;;;;;;;2.50;0.90;;;;;;;21.41;35.03;99063.94;4502646;31;20076;-81
2022/07/13 00:05:20;;;;;;;2.95;0.98;;;;;;;21.43;35.05;99066.47;4502573;31;20449;-81
2022/07/13 00:07:45;;;;;;;3.00;0.93;;;;;;;21.48;35.10;99064.22;4502638;31;20096;-81
2022/07/13 00:10:11;;;;;;;1.48;0.70;;;;;;;21.49;35.10;99072.09;4502436;31;20137;-82
2022/07/13 00:12:37;;;;;;;4.12;0.98;;;;;;;21.59;34.93;99072.94;4502598;31;20096;-82
2022/07/13 00:15:03;;;;;;;5.95;1.00;;;;;;;21.38;35.37;99075.81;4503943;31;20079;-82
2022/07/13 00:17:29;;;;;;;2.05;0.80;;;;;;;21.35;35.45;99069.88;4507466;31;20118;-82
2022/07/13 00:19:54;;;;;;;2.87;0.80;;;;;;;21.34;35.51;99070.84;4493143;31;20096;-82
2022/07/13 00:22:20;;;;;;;3.15;0.82;;;;;;;21.67;35.03;99065.97;4507488;31;20076;-82
2022/07/13 00:24:45;;;;;;;2.47;0.98;;;;;;;21.37;35.48;99074.09;4507704;31;20102;-82
2022/07/13 00:27:10;;;;;;;3.50;1.00;;;;;;;21.59;35.15;99066.72;4507641;31;20087;-82
2022/07/13 00:29:36;;;;;;;3.40;1.00;;;;;;;21.45;35.36;99061.84;4507468;31;20136;-81
2022/07/13 00:32:01;;;;;;;2.35;0.95;;;;;;;21.41;35.52;99061.25;4507438;31;20084;-82
2022/07/13 00:34:27;;;;;;;2.53;0.80;;;;;;;21.34;35.64;99054.78;4493132;31;20080;-82
2022/07/13 00:36:52;;;;;;;3.10;0.90;;;;;;;21.46;35.43;99056.34;4507470;31;20083;-82
2022/07/13 00:39:17;;;;;;;2.33;0.90;;;;;;;21.54;35.28;99052.91;4507444;31;20118;-82
2022/07/13 00:41:47;;;;;;;3.58;0.80;;;;;;;21.57;35.32;99052.59;4507424;31;20168;-82
2022/07/13 00:44:13;;;;;;;3.12;0.90;;;;;;;21.61;35.24;99048.63;4493037;31;20083;-82
2022/07/13 00:46:40;;;;;;;2.97;0.80;;;;;;;21.56;35.39;99050.94;4507099;31;20762;-82
2022/07/13 00:49:05;;;;;;;3.58;0.88;;;;;;;21.48;35.54;99042.75;4506946;31;20159;-82
2022/07/13 00:51:31;;;;;;;5.40;0.80;;;;;;;21.52;35.49;99049.56;4506922;31;20084;-82
2022/07/13 00:53:57;;;;;;;3.53;1.00;;;;;;;21.35;35.76;99046.59;4492592;31;20088;-82
2022/07/13 00:56:24;;;;;;;1.50;0.73;;;;;;;21.27;35.96;99045.66;4506986;31;20140;-82
2022/07/13 00:58:50;;;;;;;4.57;1.05;;;;;;;21.25;36.06;99048.47;4506858;31;20119;-82
2022/07/13 01:01:16;;;;;;;5.05;0.95;;;;;;;21.42;35.72;99038.81;4492469;31;20367;-82
2022/07/13 01:03:41;;;;;;;3.60;1.00;;;;;;;21.36;35.83;99042.06;4506821;31;20143;-82
2022/07/13 01:06:07;;;;;;;5.03;1.65;;;;;;;21.36;35.87;99044.75;4506711;31;20103;-82
2022/07/13 01:08:34;;;;;;;3.55;1.00;;;;;;;21.13;36.27;99037.09;4506836;31;20148;-81
2022/07/13 01:10:59;;;;;;;2.10;0.95;;;;;;;21.04;36.56;99045.16;4506617;31;20111;-81
2022/07/13 01:13:25;;;;;;;2.87;1.10;;;;;;;20.86;36.95;99045.00;4506413;31;20076;-80
2022/07/13 01:15:50;;;;;;;4.35;1.00;;;;;;;21.02;36.62;99047.97;4492334;31;20084;-81
2022/07/13 01:18:16;;;;;;;5.47;1.00;;;;;;;21.21;36.36;99044.41;4492173;31;20096;-81
2022/07/13 01:20:42;;;;;;;3.75;1.00;;;;;;;20.95;36.71;99041.47;4506546;31;20076;-82
2022/07/13 01:23:09;;;;;;;3.75;1.20;;;;;;;20.95;36.83;99036.97;4506579;31;20110;-82
2022/07/13 01:25:35;;;;;;;2.35;0.90;;;;;;;20.69;37.24;99031.38;4506451;31;20119;-82
2022/07/13 01:28:01;;;;;;;3.40;1.10;;;;;;;20.87;37.00;99038.69;4503344;31;20474;-81
2022/07/13 01:30:26;;;;;;;3.35;0.98;;;;;;;20.69;37.31;99033.22;4489267;31;20096;-81
2022/07/13 01:32:51;;;;;;;4.40;1.30;;;;;;;20.86;36.94;99028.94;4503643;31;20151;-82
2022/07/13 01:35:18;;;;;;;3.45;0.98;;;;;;;20.68;37.22;99035.03;4489282;31;20106;-82
2022/07/13 01:37:44;;;;;;;3.40;1.30;;;;;;;20.84;37.00;99025.56;4503550;31;20508;-82
2022/07/13 01:40:11;;;;;;;3.65;1.15;;;;;;;20.69;37.20;99023.34;4489174;31;20096;-82
2022/07/13 01:42:54;;;;;;;2.30;1.00;;;;;;;20.95;36.63;99031.59;4503451;31;20477;-82
2022/07/13 01:45:22;;;;;;;3.65;1.15;;;;;;;20.60;37.26;99026.88;4503621;31;20084;-81
2022/07/13 01:47:50;;;;;;;2.85;0.90;;;;;;;20.64;37.21;99022.91;4503601;31;20530;-82
2022/07/13 01:50:18;;;;;;;2.67;1.08;;;;;;;20.92;36.57;99021.19;4489178;31;20409;-82
2022/07/13 01:52:44;;;;;;;2.97;1.12;;;;;;;20.77;36.78;99028.81;4489212;31;20105;-82
2022/07/13 01:55:11;;;;;;;3.00;1.02;;;;;;;20.91;36.54;99026.69;4489140;31;20130;-82
2022/07/13 01:57:37;;;;;;;5.57;1.13;;;;;;;20.84;36.65;99023.72;4503555;31;20140;-82
2022/07/13 02:00:07;;;;;;;3.10;0.98;;;;;;;20.74;36.85;99018.37;4503390;31;20080;-82
2022/07/13 02:02:32;;;;;;;4.90;1.12;;;;;;;20.85;36.59;99025.44;4489064;31;20088;-82
2022/07/13 02:04:58;;;;;;;2.22;1.10;;;;;;;20.92;36.39;99023.00;4503527;31;20068;-82
2022/07/13 02:07:23;;;;;;;3.08;1.10;;;;;;;20.84;36.52;99017.53;4503322;31;20114;-82
2022/07/13 02:09:50;;;;;;;1.90;0.80;;;;;;;20.68;36.98;99018.13;4489079;31;20205;-83
2022/07/13 02:12:16;;;;;;;3.65;1.05;;;;;;;20.68;37.02;99018.97;4503300;31;20152;-82
2022/07/13 02:14:42;;;;;;;4.07;1.08;;;;;;;20.73;36.97;99021.22;4488831;31;20529;-82
2022/07/13 02:17:07;;;;;;;4.93;1.20;;;;;;;20.48;37.59;99026.13;4488916;31;20096;-82
2022/07/13 02:19:33;;;;;;;3.95;1.00;;;;;;;20.48;37.62;99014.59;4503206;31;20107;-81
2022/07/13 02:21:58;;;;;;;3.30;1.17;;;;;;;20.47;37.73;99018.25;4503243;31;20108;-82
2022/07/13 02:24:24;;;;;;;4.20;1.10;;;;;;;20.32;37.98;99023.16;4503236;31;20360;-82
2022/07/13 02:26:50;;;;;;;4.32;1.20;;;;;;;20.14;38.13;99018.50;4503129;31;20088;-83
2022/07/13 02:29:16;;;;;;;2.35;0.90;;;;;;;20.24;37.92;99015.84;4489028;31;20744;-82
2022/07/13 02:31:41;;;;;;;1.67;0.80;;;;;;;20.40;37.45;99009.94;4503000;31;20088;-82
2022/07/13 02:34:07;;;;;;;2.72;1.10;;;;;;;20.48;37.18;99010.09;4503208;31;20434;-83
2022/07/13 02:36:32;;;;;;;2.33;1.00;;;;;;;20.49;37.20;99005.56;4488765;31;20452;-82
2022/07/13 02:38:58;;;;;;;3.05;0.90;;;;;;;20.54;37.05;99008.69;4501919;31;20092;-81
2022/07/13 02:41:23;;;;;;;2.33;0.90;;;;;;;20.60;36.87;99010.81;4503251;31;20088;-81
2022/07/13 02:43:52;;;;;;;3.62;0.90;;;;;;;20.60;36.80;99008.97;4503104;31;20076;-82
2022/07/13 02:46:17;;;;;;;3.78;1.05;;;;;;;20.46;37.05;99008.53;4488543;31;20104;-82
2022/07/13 02:48:42;;;;;;;6.95;1.10;;;;;;;20.30;37.43;99001.94;4503080;31;20106;-82
2022/07/13 02:51:08;;;;;;;3.53;0.90;;;;;;;20.43;37.08;99006.97;4502940;31;20100;-81
2022/07/13 02:53:33;;;;;;;2.97;0.95;;;;;;;20.32;37.35;99009.78;4503026;31;20119;-81
2022/07/13 02:55:59;;;;;;;3.55;0.95;;;;;;;20.19;37.67;99008.25;4503101;31;20104;-82
2022/07/13 02:58:24;;;;;;;4.35;1.10;;;;;;;20.15;37.89;99003.31;4503068;31;20076;-81
2022/07/13 03:00:50;;;;;;;1.48;0.90;;;;;;;20.37;37.50;99003.03;4503044;31;20107;-81
2022/07/13 03:03:15;;;;;;;4.85;1.00;;;;;;;20.19;37.83;98992.19;4502929;31;20072;-82
2022/07/13 03:05:41;;;;;;;4.55;1.00;;;;;;;20.31;37.52;98992.91;4502962;31;20080;-82
2022/07/13 03:08:06;;;;;;;2.40;0.95;;;;;;;20.22;37.84;99007.09;4502991;31;20084;-82
2022/07/13 03:10:31;;;;;;;4.47;1.00;;;;;;;20.09;38.10;98999.38;4502837;31;20084;-82
2022/07/13 03:12:58;;;;;;;2.90;0.90;;;;;;;20.23;37.92;99006.97;4488505;31;20084;-82
2022/07/13 03:15:24;;;;;;;3.75;1.00;;;;;;;19.97;38.44;99005.81;4503002;31;20136;-81
2022/07/13 03:17:50;;;;;;;2.53;0.90;;;;;;;20.15;38.15;99004.16;4502934;31;20107;-81
2022/07/13 03:20:15;;;;;;;5.03;1.15;;;;;;;20.11;38.30;99004.56;4502884;31;20365;-81
2022/07/13 03:22:40;;;;;;;2.65;1.08;;;;;;;20.17;38.25;99002.19;4502762;31;20095;-81
2022/07/13 03:25:06;;;;;;;2.45;1.02;;;;;;;20.10;38.37;99009.06;4502781;31;20085;-81
2022/07/13 03:27:32;;;;;;;2.92;1.10;;;;;;;20.04;38.62;99002.44;4502873;31;20092;-80
2022/07/13 03:29:57;;;;;;;3.78;1.00;;;;;;;19.82;39.05;99003.56;4502779;31;20328;-81
2022/07/13 03:32:23;;;;;;;6.97;1.00;;;;;;;19.81;39.11;99009.03;4502725;31;20103;-81
2022/07/13 03:34:48;;;;;;;2.85;1.08;;;;;;;19.49;39.78;99004.69;4502629;31;20120;-81
2022/07/13 03:37:14;;;;;;;3.45;1.02;;;;;;;19.62;39.49;99004.44;4502760;31;20091;-81
2022/07/13 03:39:39;;;;;;;4.25;1.20;;;;;;;19.55;39.58;99005.97;4502704;31;20140;-81
2022/07/13 03:42:05;;;;;;;3.50;1.20;;;;;;;19.64;39.54;99013.16;4502563;31;20360;-81
2022/07/13 03:44:31;;;;;;;4.10;1.17;;;;;;;19.87;39.01;99004.97;4502660;31;20791;-81
2022/07/13 03:46:56;;;;;;;2.75;0.95;;;;;;;20.08;38.47;99007.53;4502631;31;20144;-81
2022/07/13 03:49:22;;;;;;;2.25;0.90;;;;;;;20.18;38.54;99006.53;4502033;31;20592;-81
2022/07/13 03:51:48;;;;;;;4.72;1.20;;;;;;;20.25;38.25;99012.19;4488194;31;20132;-82
2022/07/13 03:54:14;;;;;;;3.45;1.05;;;;;;;20.40;37.80;99016.16;4488076;31;20097;-81
2022/07/13 03:56:39;;;;;;;2.00;0.90;;;;;;;20.29;38.03;99020.78;4488188;31;20092;-81
2022/07/13 03:59:05;;;;;;;3.05;1.10;;;;;;;20.27;38.11;99018.25;4488056;31;20487;-81
2022/07/13 04:01:31;;;;;;;3.03;1.00;;;;;;;20.40;37.71;99007.28;4502664;31;20104;-81
2022/07/13 04:03:58;;;;;;;3.53;1.10;;;;;;;20.55;37.14;99015.69;4488439;31;20100;-80
2022/07/13 04:06:24;;;;;;;3.53;1.00;;;;;;;20.39;37.53;99008.25;4502344;31;20753;-79
2022/07/13 04:08:50;;;;;;;4.57;1.12;;;;;;;20.75;36.56;99008.56;4502445;31;20084;-81
2022/07/13 04:11:15;;;;;;;4.10;1.05;;;;;;;20.89;36.48;99008.09;4502231;31;20076;-80
2022/07/13 04:13:40;;;;;;;3.70;1.20;;;;;;;20.73;36.31;99015.88;4502045;31;20127;-82
2022/07/13 04:16:06;;;;;;;2.20;0.85;;;;;;;20.92;36.23;99009.63;4488018;31;20155;-82
2022/07/13 04:18:32;;;;;;;2.87;0.80;;;;;;;20.87;36.20;99003.88;4487906;31;20080;-81
2022/07/13 04:20:58;;;;;;;4.07;1.15;;;;;;;21.26;36.11;99009.13;4502147;31;20485;-81
2022/07/13 04:23:23;;;;;;;3.30;1.02;;;;;;;21.43;35.65;99013.69;4502197;31;20096;-81
2022/07/13 04:25:49;;;;;;;3.28;0.90;;;;;;;21.36;35.63;99008.09;4501992;31;20092;-81
2022/07/13 04:28:14;;;;;;;4.82;1.17;;;;;;;21.66;35.00;99008.84;4502106;31;20476;-81
2022/07/13 04:30:40;;;;;;;9.52;1.60;;;;;;;21.71;34.89;99006.56;4501954;31;20091;-81
2022/07/13 04:33:05;;;;;;;5.62;1.00;;;;;;;21.58;35.20;99011.41;4487665;31;20156;-81
2022/07/13 04:35:30;;;;;;;3.35;1.00;;;;;;;21.81;34.78;99006.50;4487679;31;20368;-81
2022/07/13 04:37:56;;;;;;;3.90;1.15;;;;;;;21.70;34.93;99015.56;4501853;31;20080;-81
2022/07/13 04:40:21;;;;;;;3.30;0.95;;;;;;;22.04;34.39;99017.66;4501894;31;20088;-82
2022/07/13 04:42:47;;;;;;;3.33;0.85;;;;;;;22.10;34.27;99011.69;4501796;31;20119;-81
2022/07/13 04:45:12;;;;;;;3.28;1.00;;;;;;;22.13;33.97;99005.16;4501693;31;20454;-81
2022/07/13 04:47:38;;;;;;;3.72;1.10;;;;;;;22.46;33.95;99003.63;4487660;31;20105;-81
2022/07/13 04:50:04;;;;;;;1.70;0.80;;;;;;;22.32;33.71;99023.81;4501842;31;20098;-80
2022/07/13 04:52:30;;;;;;;4.03;1.00;;;;;;;22.33;33.64;99022.84;4474363;31;20108;-81
2022/07/13 04:54:55;;;;;;;2.55;0.85;;;;;;;22.57;33.22;99013.31;4501971;31;20115;-81
2022/07/13 04:57:21;;;;;;;4.03;0.90;;;;;;;22.27;33.32;99017.22;4474337;31;20415;-81
2022/07/13 04:59:46;;;;;;;4.32;1.05;;;;;;;22.24;33.38;99014.81;4501878;31;20407;-81
2022/07/13 05:02:11;;;;;;;3.53;0.93;;;;;;;22.63;32.71;99011.84;4502702;31;20391;-81
2022/07/13 05:04:37;;;;;;;2.72;0.80;;;;;;;22.88;32.32;99012.88;4504073;31;20134;-81
2022/07/13 05:07:02;;;;;;;4.80;1.10;;;;;;;22.86;32.48;99015.72;4504116;31;20073;-80
2022/07/13 05:09:28;;;;;;;2.72;0.85;;;;;;;22.81;32.29;99028.75;4503976;31;20140;-80
2022/07/13 05:11:53;;;;;;;3.00;1.00;;;;;;;22.66;32.74;99017.75;4476154;31;20108;-77
2022/07/13 05:14:19;;;;;;;4.35;1.20;;;;;;;22.97;32.26;99017.31;4503602;31;20366;-78
2022/07/13 05:16:44;;;;;;;2.58;0.80;;;;;;;23.11;32.11;99014.06;4489412;31;20085;-81
2022/07/13 05:19:11;;;;;;;2.62;0.90;;;;;;;23.01;31.99;99017.84;4489445;31;20459;-86
2022/07/13 05:21:37;;;;;;;3.95;0.90;;;;;;;23.22;31.70;99015.66;4503577;31;20122;-82
2022/07/13 05:24:02;;;;;;;4.85;1.10;;;;;;;23.31;31.53;99013.84;4503761;31;20085;-80
2022/07/13 05:26:28;;;;;;;2.90;0.93;;;;;;;23.08;32.04;99014.41;4503654;31;20103;-81
2022/07/13 05:28:53;;;;;;;2.37;0.95;;;;;;;23.27;31.34;99016.00;4503605;31;20099;-81
2022/07/13 05:31:19;;;;;;;4.20;1.10;;;;;;;23.49;31.26;99008.41;4503575;31;20483;-80
2022/07/13 05:33:44;;;;;;;7.07;1.15;;;;;;;23.26;31.14;99013.50;4489280;31;20101;-81
2022/07/13 05:36:10;;;;;;;4.12;1.17;;;;;;;23.45;30.93;99018.63;4489234;31;20115;-82
2022/07/13 05:38:36;;;;;;;2.87;1.00;;;;;;;23.45;31.14;99023.16;4489201;31;20124;-85
2022/07/13 05:41:02;;;;;;;2.67;0.90;;;;;;;23.39;31.23;99019.25;4489289;31;20092;-83
2022/07/13 05:43:27;;;;;;;1.55;0.80;;;;;;;23.63;31.13;99017.72;4503639;31;20107;-83
2022/07/13 05:45:53;;;;;;;1.20;0.77;;;;;;;23.93;30.45;99016.31;4502943;31;20080;-83
2022/07/13 05:48:18;;;;;;;5.93;1.08;;;;;;;23.84;30.42;99023.53;4503337;31;20104;-83
2022/07/13 05:50:44;;;;;;;2.72;0.90;;;;;;;23.74;30.35;99020.94;4489122;31;20130;-83
2022/07/13 05:53:10;;;;;;;6.28;1.20;;;;;;;23.80;30.46;99024.00;4489204;31;20164;-83
2022/07/13 05:55:35;;;;;;;3.65;0.80;;;;;;;23.60;30.89;99028.78;4489170;31;20091;-83
2022/07/13 05:58:01;;;;;;;2.95;1.10;;;;;;;23.72;30.69;99025.66;4503224;31;20344;-83
2022/07/13 06:00:27;;;;;;;5.47;1.10;;;;;;;23.61;30.91;99020.56;4503188;31;20103;-82
2022/07/13 06:02:53;;;;;;;5.12;1.10;;;;;;;24.15;30.35;99022.94;4503466;31;20092;-82
2022/07/13 06:05:19;;;;;;;5.40;1.53;;;;;;;24.04;30.20;99020.56;4503642;31;20112;-83
2022/07/13 06:07:45;;;;;;;4.03;1.00;;;;;;;24.36;30.07;99016.22;4503222;31;20124;-83
2022/07/13 06:10:11;;;;;;;3.87;1.10;;;;;;;24.66;30.12;99017.47;4503186;31;20136;-83
2022/07/13 06:12:36;;;;;;;8.43;1.35;;;;;;;25.02;30.05;99015.25;4503032;31;20370;-83
2022/07/13 06:15:02;;;;;;;4.62;1.37;;;;;;;25.09;30.07;99013.56;4503398;31;20478;-83
2022/07/13 06:17:28;;;;;;;5.03;1.17;;;;;;;25.40;29.69;99007.44;4503293;31;20072;-83
2022/07/13 06:19:53;;;;;;;3.83;1.10;;;;;;;25.60;29.62;99015.13;4503251;31;20115;-83
2022/07/13 06:22:19;;;;;;;9.88;1.48;;;;;;;25.74;29.28;99010.84;4503319;31;20167;-83
2022/07/13 06:24:44;;;;;;;5.03;1.30;;;;;;;25.88;28.92;99013.66;4503253;31;20088;-83
2022/07/13 06:27:10;;;;;;;3.58;1.20;;;;;;;26.11;28.84;99022.81;4503152;31;20132;-83
2022/07/13 06:29:35;;;;;;;3.78;1.00;;;;;;;25.95;29.46;99019.19;4488778;31;20097;-83
2022/07/13 06:32:01;;;;;;;7.28;1.30;;;;;;;26.10;28.95;99013.91;4503082;31;20103;-83
2022/07/13 06:34:26;;;;;;;2.67;1.15;;;;;;;26.26;28.71;99018.34;4503085;31;20084;-83
2022/07/13 06:36:52;;;;;;;7.60;1.37;;;;;;;26.21;28.87;99018.91;4503052;31;20364;-83
2022/07/13 06:39:17;;;;;;;5.78;1.52;;;;;;;26.44;29.01;99026.13;4488753;31;20116;-83
2022/07/13 06:41:43;;;;;;;5.43;1.20;;;;;;;26.60;28.49;99009.84;4503162;31;20127;-83
2022/07/13 06:44:09;;;;;;;4.25;1.37;;;;;;;26.52;28.83;99014.44;4503119;31;20111;-83
2022/07/13 06:46:34;;;;;;;5.82;1.30;;;;;;;26.63;28.65;99020.28;4503103;31;20137;-83
2022/07/13 06:49:00;;;;;;;5.00;1.30;;;;;;;26.56;29.40;99015.75;4503076;31;20168;-83
2022/07/13 06:51:25;;;;;;;7.87;1.00;;;;;;;26.51;28.46;99024.41;4503006;31;20106;-83
2022/07/13 06:53:51;;;;;;;7.65;1.33;;;;;;;26.02;29.09;99028.28;4488533;31;20091;-83
2022/07/13 06:56:16;;;;;;;6.43;1.10;;;;;;;26.23;28.70;99033.06;4503059;31;20106;-83
2022/07/13 06:58:42;;;;;;;5.80;1.17;;;;;;;26.11;29.09;99023.66;4475421;31;20108;-83
2022/07/13 07:01:07;;;;;;;7.43;1.37;;;;;;;26.39;28.84;99018.59;4488642;31;20119;-83
2022/07/13 07:03:33;;;;;;;4.32;1.20;;;;;;;26.50;28.84;99025.41;4502886;31;20099;-83
2022/07/13 07:05:58;;;;;;;4.82;1.10;;;;;;;26.24;29.08;99032.03;4502894;31;20081;-83
2022/07/13 07:08:24;;;;;;;3.60;1.02;;;;;;;26.38;28.71;99024.16;4502915;31;20122;-83
2022/07/13 07:10:49;;;;;;;8.70;1.25;;;;;;;26.17;29.00;99022.09;4502760;31;20355;-83
2022/07/13 07:13:15;;;;;;;4.05;1.20;;;;;;;26.10;29.19;99019.28;4502750;31;20151;-83
2022/07/13 07:15:40;;;;;;;3.47;1.10;;;;;;;26.17;28.93;99017.53;4502975;31;20068;-83
2022/07/13 07:18:06;;;;;;;4.03;1.23;;;;;;;26.38;29.09;99026.88;4475368;31;20096;-83
2022/07/13 07:20:32;;;;;;;4.65;1.10;;;;;;;26.21;29.32;99023.44;4488607;31;20156;-83
2022/07/13 07:22:57;;;;;;;5.97;1.30;;;;;;;26.41;28.84;99030.06;4502777;31;20075;-84
2022/07/13 07:25:23;;;;;;;4.90;1.12;;;;;;;26.51;28.97;99016.31;4487615;31;20116;-83
2022/07/13 07:27:48;;;;;;;5.50;1.42;;;;;;;26.35;29.01;99009.16;4502828;31;20132;-83
2022/07/13 07:30:14;;;;;;;5.97;1.20;;;;;;;26.12;29.28;99011.84;4502703;31;20110;-83
2022/07/13 07:32:40;;;;;;;3.15;1.12;;;;;;;26.47;29.15;99009.59;4488468;31;20092;-84
2022/07/13 07:35:07;;;;;;;5.85;1.33;;;;;;;26.66;29.32;99001.00;4502734;31;20084;-83
2022/07/13 07:37:33;;;;;;;7.22;1.37;;;;;;;26.57;29.09;99014.75;4488391;31;20146;-84
2022/07/13 07:39:59;;;;;;;4.57;1.20;;;;;;;26.85;28.84;99004.25;4503082;31;20110;-84
2022/07/13 07:42:25;;;;;;;2.45;1.15;;;;;;;26.76;28.63;99000.75;4475335;31;20092;-84
2022/07/13 07:44:50;;;;;;;4.97;0.90;;;;;;;26.97;28.97;98994.66;4502796;31;20080;-83
2022/07/13 07:47:16;;;;;;;4.40;1.20;;;;;;;26.98;28.73;98996.31;4488065;31;20153;-83
2022/07/13 07:49:42;;;;;;;7.95;1.10;;;;;;;26.81;29.08;99005.59;4502614;31;20083;-83
2022/07/13 07:52:08;;;;;;;5.00;1.10;;;;;;;26.40;29.49;99031.06;4502635;31;20080;-83
2022/07/13 07:54:33;;;;;;;2.97;1.00;;;;;;;26.16;29.94;99004.25;4502445;31;20094;-83
2022/07/13 07:56:59;;;;;;;5.40;1.40;;;;;;;26.26;29.90;99029.97;4475071;31;20423;-83
2022/07/13 07:59:24;;;;;;;3.83;1.10;;;;;;;26.54;29.45;99015.09;4502544;31;20076;-83
2022/07/13 08:01:50;;;;;;;4.78;1.17;;;;;;;26.69;29.35;99002.50;4488080;31;20106;-83
2022/07/13 08:04:15;;;;;;;7.43;1.20;;;;;;;26.56;29.46;99004.94;4502467;31;20348;-83
2022/07/13 08:06:41;;;;;;;4.32;1.00;;;;;;;26.73;29.55;99005.69;4502475;31;20096;-83
2022/07/13 08:09:06;;;;;;;4.97;1.15;;;;;;;26.74;29.54;98999.28;4487942;31;20096;-83
2022/07/13 08:11:32;;;;;;;8.68;1.30;;;;;;;26.88;29.32;98995.75;4502237;31;20170;-83
2022/07/13 08:13:57;;;;;;;6.82;1.50;;;;;;;26.91;29.05;98991.81;4501993;31;20083;-83
2022/07/13 08:16:23;;;;;;;6.30;1.10;;;;;;;26.52;29.63;99006.34;4502238;31;20088;-83
2022/07/13 08:18:49;;;;;;;4.15;1.23;;;;;;;26.58;29.69;98994.78;4502221;31;20132;-83
2022/07/13 08:21:14;;;;;;;5.78;1.20;;;;;;;26.37;30.04;99000.91;4502119;31;20488;-83
2022/07/13 08:23:52;;;;;;;6.90;1.20;;;;;;;26.61;29.41;98984.50;4502103;31;20094;-83
2022/07/13 08:26:22;;;;;;;4.70;1.20;;;;;;;26.38;30.03;98989.06;4489226;31;20115;-83
2022/07/13 08:28:48;;;;;;;3.47;1.30;;;;;;;26.23;30.13;98991.69;4474594;31;20566;-84
2022/07/13 08:31:13;;;;;;;2.35;1.10;;;;;;;26.39;30.30;98996.97;4501973;31;20094;-84
2022/07/13 08:39:09;;;;;;;3.35;1.10;;;;;;;26.95;29.53;98993.16;4504118;31;20118;-83
2022/07/13 08:41:35;;;;;;;7.22;1.50;;;;;;;27.16;29.35;98989.72;4503986;31;20163;-83
2022/07/13 08:44:01;;;;;;;5.45;1.45;;;;;;;27.15;29.11;99013.22;4504019;31;20080;-84
2022/07/13 08:46:27;;;;;;;5.43;1.10;;;;;;;27.13;29.28;98984.69;4503917;31;20108;-83
2022/07/13 08:48:54;;;;;;;5.93;1.40;;;;;;;27.19;29.26;98979.37;4504018;31;20462;-83
2022/07/13 08:51:20;;;;;;;;;;;;;;;26.81;29.50;98992.94;4489923;31;20087;-83
2022/07/13 08:53:46;;;;;;;4.55;1.30;;;;;;;26.84;29.59;98987.16;4489797;31;19967;-84
2022/07/13 08:56:12;;;;;;;10.70;1.83;;;;;;;26.94;29.52;98988.75;4504018;31;20125;-83
2022/07/13 08:58:38;;;;;;;4.82;1.30;;;;;;;26.76;29.57;98989.94;4489672;31;20123;-83
2022/07/13 09:01:05;;;;;;;3.53;1.15;;;;;;;27.02;28.76;98983.28;4503803;31;20106;-83
2022/07/13 09:03:34;;;;;;;7.35;1.42;;;;;;;27.20;29.29;98974.81;4503852;31;20107;-83
2022/07/13 09:05:59;;;;;;;4.30;1.20;;;;;;;26.95;28.26;98969.66;4489473;31;20104;-83
2022/07/13 09:08:25;;;;;;;4.85;1.20;;;;;;;26.68;29.51;98976.50;4503852;31;20526;-83
2022/07/13 09:11:00;;;;;;;6.85;1.40;;;;;;;26.81;29.16;98971.31;4503640;31;20123;-83
2022/07/13 09:13:38;;;;;;;4.53;1.35;;;;;;;27.15;29.19;98972.66;4503589;31;20106;-83
2022/07/13 09:16:26;;;;;;;3.85;1.10;;;;;;;27.07;29.61;98962.75;4489726;31;20124;-83
2022/07/13 09:18:53;;;;;;;5.53;1.20;;;;;;;26.88;29.37;98971.41;4489513;31;20100;-84
2022/07/13 09:21:19;;;;;;;6.18;1.30;;;;;;;26.95;29.00;98958.03;4503709;31;20123;-83
2022/07/13 09:23:48;;;;;;;4.37;1.20;;;;;;;26.85;29.63;98948.31;4489507;31;20379;-83
2022/07/13 09:26:14;;;;;;;6.10;1.15;;;;;;;27.19;28.82;98963.13;4489465;31;20104;-83
2022/07/13 09:28:44;;;;;;;6.43;1.17;;;;;;;27.14;28.56;98967.41;4489448;31;20443;-84
2022/07/13 09:31:10;;;;;;;12.60;1.62;;;;;;;27.20;28.97;98955.88;4476102;31;20096;-83
2022/07/13 09:33:36;;;;;;;4.45;1.40;;;;;;;27.46;28.62;98961.66;4489314;31;20084;-83
2022/07/13 09:36:13;;;;;;;6.35;1.42;;;;;;;27.45;27.57;98953.75;4489273;31;20112;-83
2022/07/13 09:38:41;;;;;;;7.50;1.25;;;;;;;27.65;27.93;98962.94;4490059;31;20188;-83
2022/07/13 09:41:26;;;;;;;6.65;1.40;;;;;;;27.36;28.32;98969.22;4503912;31;20095;-83
2022/07/13 09:47:00;;;;;;;9.52;1.45;;;;;;;27.39;28.19;98958.03;4503624;31;20281;-83
2022/07/13 09:49:29;;;;;;;5.53;1.50;;;;;;;26.70;28.49;98955.56;4503109;31;20535;-83
2022/07/13 09:51:59;;;;;;;4.22;1.10;;;;;;;26.68;28.81;98971.13;4503380;31;20439;-83
2022/07/13 09:54:33;;;;;;;6.90;1.30;;;;;;;26.68;29.00;98963.84;4476287;31;20118;-84
2022/07/13 09:57:03;;;;;;;4.75;1.25;;;;;;;26.66;29.42;98954.25;4503403;31;20184;-83
2022/07/13 09:59:29;;;;;;;5.00;1.17;;;;;;;26.93;29.02;98949.25;4503872;31;20092;-84
2022/07/13 10:01:55;;;;;;;5.32;1.20;;;;;;;27.05;28.43;98945.06;4489087;31;20141;-83
2022/07/13 10:04:22;;;;;;;3.60;1.05;;;;;;;27.28;28.19;98955.81;4503400;31;20087;-83
2022/07/13 10:06:49;;;;;;;4.47;1.20;;;;;;;27.42;27.10;98964.94;4489163;31;20104;-84
2022/07/13 10:09:17;;;;;;;3.83;1.08;;;;;;;27.65;26.67;98943.16;4489145;31;20099;-84
2022/07/13 10:11:42;;;;;;;5.55;1.15;;;;;;;27.60;26.91;98949.16;4503239;31;20420;-83
2022/07/13 10:14:08;;;;;;;4.70;1.20;;;;;;;27.61;25.57;98950.00;4488676;31;20128;-84
2022/07/13 10:16:33;;;;;;;8.23;1.20;;;;;;;27.77;25.57;98944.34;4488681;31;20104;-83
2022/07/13 10:19:03;;;;;;;4.55;0.90;;;;;;;27.71;26.40;98944.28;4503380;31;20229;-83
2022/07/13 10:21:53;;;;;;;3.45;1.10;;;;;;;27.53;27.00;98961.75;4503206;31;20088;-83
2022/07/13 10:24:18;;;;;;;2.80;0.90;;;;;;;27.44;27.29;98936.66;4503359;31;20098;-83
2022/07/13 10:26:47;;;;;;;4.68;1.30;;;;;;;27.52;26.97;98929.47;4503295;31;20088;-84
2022/07/13 10:29:15;;;;;;;2.92;0.98;;;;;;;27.85;26.91;98946.94;4488978;31;20183;-84
2022/07/13 10:31:41;;;;;;;4.68;1.30;;;;;;;27.53;26.90;98953.62;4503264;31;20431;-83
2022/07/13 10:34:09;;;;;;;3.85;1.10;;;;;;;27.77;26.61;98929.97;4503223;31;20140;-84
2022/07/13 10:36:53;;;;;;;5.50;1.20;;;;;;;27.91;26.88;98939.09;4503314;31;20119;-84
2022/07/13 10:39:26;;;;;;;4.65;1.27;;;;;;;27.89;27.06;98938.47;4503258;31;20084;-84
2022/07/13 10:42:07;;;;;;;8.80;1.48;;;;;;;28.08;26.73;98899.91;4503178;31;20087;-83
2022/07/13 10:44:42;;;;;;;5.55;1.10;;;;;;;27.85;25.53;98932.56;4503160;31;20080;-83
2022/07/13 10:47:12;;;;;;;5.12;1.10;;;;;;;27.85;25.38;98937.97;4488813;31;20100;-84
2022/07/13 10:49:46;;;;;;;12.70;1.42;;;;;;;27.99;25.64;98929.00;4503077;31;20511;-83
2022/07/13 10:52:21;;;;;;;2.85;1.10;;;;;;;27.94;25.35;98934.16;4489336;31;20106;-83
2022/07/13 10:55:15;;;;;;;6.80;1.00;;;;;;;28.01;25.03;98932.34;4503135;31;20084;-83
2022/07/13 10:57:46;;;;;;;5.60;1.30;;;;;;;28.17;24.75;98935.84;4485672;31;20100;-83
2022/07/13 11:00:18;;;;;;;3.78;1.20;;;;;;;28.06;24.68;98937.19;4501826;31;20096;-83
2022/07/13 11:02:48;;;;;;;4.22;1.30;;;;;;;28.04;24.62;98929.25;4503076;31;20118;-84
2022/07/13 11:05:17;;;;;;;3.83;1.05;;;;;;;28.32;24.64;98922.19;4502895;31;20104;-83
2022/07/13 11:07:48;;;;;;;3.17;1.20;;;;;;;28.55;24.14;98933.72;4488831;31;20725;-83
2022/07/13 11:10:26;;;;;;;14.45;2.20;;;;;;;28.46;24.43;98944.84;4488529;31;20096;-83
2022/07/13 11:13:02;;;;;;;3.97;1.10;;;;;;;28.38;24.77;98935.00;4502799;31;20088;-83
2022/07/13 11:15:50;;;;;;;3.78;1.02;;;;;;;28.19;25.05;98936.47;4502930;31;20102;-83
2022/07/13 11:18:21;;;;;;;12.65;1.40;;;;;;;28.37;23.43;98930.59;4488663;31;20455;-83
2022/07/13 11:21:18;;;;;;;2.55;1.05;;;;;;;28.13;23.97;98924.56;4502920;31;20122;-84
2022/07/13 11:26:55;;;;;;;5.30;1.10;;;;;;;28.37;23.11;98922.47;4502887;31;20097;-83
2022/07/13 11:29:23;;;;;;;20.77;1.95;;;;;;;28.45;23.32;98900.62;4488523;31;20139;-83
2022/07/13 11:31:59;;;;;;;3.58;1.00;;;;;;;27.82;24.25;98905.88;4488406;31;20108;-83
2022/07/13 11:34:26;;;;;;;8.35;1.40;;;;;;;27.70;24.86;98921.78;4488489;31;20110;-83
2022/07/13 11:36:53;;;;;;;7.15;1.40;;;;;;;27.89;24.61;98906.81;4488448;31;20171;-84
2022/07/13 11:39:26;;;;;;;4.28;0.95;;;;;;;28.35;23.91;98892.03;4488460;31;20127;-83
2022/07/13 11:41:55;;;;;;;10.73;1.50;;;;;;;28.17;24.11;98887.09;4502611;31;20148;-83
2022/07/13 11:44:22;;;;;;;4.80;1.87;;;;;;;28.26;24.01;98883.22;4488591;31;20110;-83